Time,TemperatureF,DewpointF,PressureIn,WindDirection,WindDirectionDegrees,WindSpeedMPH,WindSpeedGustMPH,Humidity,HourlyPrecipIn,Conditions,Clouds,dailyrainin,SoftwareType,DateUTC
2013-04-06 00:12:00,33.0,25.0,29.91,West,271,2.0,-999.0,72,-99.99,,,0.00,weatherlink.com 1.10,2013-04-06 04:12:00,
2013-04-06 00:27:00,32.5,24.0,29.92,WNW,301,17.0,-999.0,72,-99.99,,,0.00,weatherlink.com 1.10,2013-04-06 04:27:00,
2013-04-06 00:42:00,32.5,24.0,29.93,NNW,335,1.0,-999.0,72,-99.99,,,0.00,weatherlink.com 1.10,2013-04-06 04:42:00,
2013-04-06 00:57:00,32.2,24.0,29.93,NW,319,1.0,-999.0,72,-99.99,,,0.00,weatherlink.com 1.10,2013-04-06 04:57:00,
2013-04-06 01:13:00,31.9,24.0,29.94,NW,321,4.0,-999.0,72,-99.99,,,0.00,weatherlink.com 1.10,2013-04-06 05:13:00,
2013-04-06 01:28:00,32.0,23.0,29.94,NW,317,3.0,-999.0,69,-99.99,,,0.00,weatherlink.com 1.10,2013-04-06 05:28:00,
2013-04-06 01:43:00,32.1,23.0,29.95,NW,325,1.0,-999.0,68,-99.99,,,0.00,weatherlink.com 1.10,2013-04-06 05:43:00,
2013-04-06 01:58:00,31.9,22.0,29.95,NNW,332,0.0,-999.0,68,-99.99,,,0.00,weatherlink.com 1.10,2013-04-06 05:58:00,
2013-04-06 02:13:00,31.2,22.0,29.95,WNW,290,2.0,-999.0,68,-99.99,,,0.00,weatherlink.com 1.10,2013-04-06 06:13:00,
2013-04-06 02:28:00,30.8,21.0,29.95,NW,315,3.0,-999.0,66,-99.99,,,0.00,weatherlink.com 1.10,2013-04-06 06:28:00,
2013-04-06 02:43:00,30.5,18.0,29.96,NE,46,2.0,-999.0,61,-99.99,,,0.00,weatherlink.com 1.10,2013-04-06 06:43:00,
2013-04-06 02:58:00,30.0,20.0,29.97,NNW,335,0.0,-999.0,66,-99.99,,,0.00,weatherlink.com 1.10,2013-04-06 06:58:00,
2013-04-06 03:13:00,29.4,20.0,29.98,NW,310,0.0,-999.0,69,-99.99,,,0.00,weatherlink.com 1.10,2013-04-06 07:13:00,
2013-04-06 03:28:00,28.8,19.0,29.98,NNE,15,0.0,-999.0,68,-99.99,,,0.00,weatherlink.com 1.10,2013-04-06 07:28:00,
2013-04-06 03:58:00,28.8,16.0,30.00,NW,304,3.0,-999.0,60,-99.99,,,0.00,weatherlink.com 1.10,2013-04-06 07:58:00,
2013-04-06 04:13:00,28.7,16.0,30.02,NW,306,2.0,-999.0,59,-99.99,,,0.00,weatherlink.com 1.10,2013-04-06 08:13:00,
2013-04-06 04:28:00,28.7,15.0,30.02,WNW,294,6.0,-999.0,56,-99.99,,,0.00,weatherlink.com 1.10,2013-04-06 08:28:00,
2013-04-06 04:43:00,28.6,14.0,30.03,WNW,284,1.0,-999.0,54,-99.99,,,0.00,weatherlink.com 1.10,2013-04-06 08:43:00,
2013-04-06 04:58:00,28.4,14.0,30.04,WNW,300,2.0,-999.0,54,-99.99,,,0.00,weatherlink.com 1.10,2013-04-06 08:58:00,
2013-04-06 05:13:00,28.1,13.0,30.05,NNE,21,1.0,-999.0,53,-99.99,,,0.00,weatherlink.com 1.10,2013-04-06 09:13:00,
2013-04-06 05:58:00,27.2,16.0,30.08,ESE,107,2.0,-999.0,62,-99.99,,,0.00,weatherlink.com 1.10,2013-04-06 09:58:00,
2013-04-06 06:14:00,26.8,17.0,30.09,NW,310,5.0,-999.0,66,-99.99,,,0.00,weatherlink.com 1.10,2013-04-06 10:14:00,
2013-04-06 06:59:00,26.5,16.0,30.13,North,-999,-999.0,-999.0,64,-99.99,,,0.00,weatherlink.com 1.10,2013-04-06 10:59:00,
2013-04-06 07:14:00,26.3,15.0,30.14,North,-999,-999.0,-999.0,63,-99.99,,,0.00,weatherlink.com 1.10,2013-04-06 11:14:00,
2013-04-06 07:29:00,26.3,13.0,30.15,North,-999,-999.0,-999.0,57,-99.99,,,0.00,weatherlink.com 1.10,2013-04-06 11:29:00,
2013-04-06 07:44:00,26.6,13.0,30.16,North,-999,-999.0,-999.0,56,-99.99,,,0.00,weatherlink.com 1.10,2013-04-06 11:44:00,
2013-04-06 07:59:00,26.2,12.0,30.16,North,-999,-999.0,-999.0,56,-99.99,,,0.00,weatherlink.com 1.10,2013-04-06 11:59:00,
2013-04-06 08:14:00,26.8,13.0,30.18,North,-999,-999.0,-999.0,57,-99.99,,,0.00,weatherlink.com 1.10,2013-04-06 12:14:00,
2013-04-06 08:29:00,27.4,11.0,30.19,North,-999,-999.0,-999.0,51,-99.99,,,0.00,weatherlink.com 1.10,2013-04-06 12:29:00,
2013-04-06 08:44:00,27.6,12.0,30.19,NNW,329,5.0,-999.0,52,-99.99,,,0.00,weatherlink.com 1.10,2013-04-06 12:44:00,
2013-04-06 08:59:00,28.1,12.0,30.19,NNW,346,9.0,-999.0,52,-99.99,,,0.00,weatherlink.com 1.10,2013-04-06 12:59:00,
2013-04-06 09:14:00,28.1,12.0,30.19,NW,304,2.0,-999.0,51,-99.99,,,0.00,weatherlink.com 1.10,2013-04-06 13:14:00,
2013-04-06 09:29:00,28.0,11.0,30.21,South,188,2.0,-999.0,50,-99.99,,,0.00,weatherlink.com 1.10,2013-04-06 13:29:00,
2013-04-06 09:44:00,29.1,12.0,30.21,NW,320,3.0,-999.0,48,-99.99,,,0.00,weatherlink.com 1.10,2013-04-06 13:44:00,
2013-04-06 09:59:00,30.3,10.0,30.21,ENE,71,4.0,-999.0,43,-99.99,,,0.00,weatherlink.com 1.10,2013-04-06 13:59:00,
2013-04-06 10:14:00,31.5,11.0,30.22,WNW,301,5.0,-999.0,42,-99.99,,,0.00,weatherlink.com 1.10,2013-04-06 14:14:00,
2013-04-06 10:29:00,32.6,9.0,30.23,West,261,3.0,-999.0,38,-99.99,,,0.00,weatherlink.com 1.10,2013-04-06 14:29:00,
2013-04-06 10:44:00,33.2,10.0,30.23,NNE,27,3.0,-999.0,38,-99.99,,,0.00,weatherlink.com 1.10,2013-04-06 14:44:00,
2013-04-06 10:59:00,33.0,9.0,30.24,West,280,4.0,-999.0,36,-99.99,,,0.00,weatherlink.com 1.10,2013-04-06 14:59:00,
2013-04-06 11:15:00,34.4,9.0,30.25,NW,305,4.0,-999.0,35,-99.99,,,0.00,weatherlink.com 1.10,2013-04-06 15:15:00,
2013-04-06 11:30:00,34.8,9.0,30.25,West,278,3.0,-999.0,34,-99.99,,,0.00,weatherlink.com 1.10,2013-04-06 15:30:00,
2013-04-06 11:45:00,35.0,8.0,30.25,WNW,284,1.0,-999.0,32,-99.99,,,0.00,weatherlink.com 1.10,2013-04-06 15:45:00,
2013-04-06 12:00:00,35.7,8.0,30.25,NE,42,2.0,-999.0,32,-99.99,,,0.00,weatherlink.com 1.10,2013-04-06 16:00:00,
2013-04-06 12:15:00,36.6,8.0,30.25,West,267,4.0,-999.0,31,-99.99,,,0.00,weatherlink.com 1.10,2013-04-06 16:15:00,
2013-04-06 12:45:00,37.4,8.0,30.25,West,272,5.0,-999.0,30,-99.99,,,0.00,weatherlink.com 1.10,2013-04-06 16:45:00,
2013-04-06 13:00:00,37.9,8.0,30.25,North,5,1.0,-999.0,29,-99.99,,,0.00,weatherlink.com 1.10,2013-04-06 17:00:00,
2013-04-06 13:15:00,38.3,8.0,30.25,NW,311,6.0,-999.0,29,-99.99,,,0.00,weatherlink.com 1.10,2013-04-06 17:15:00,
2013-04-06 13:30:00,38.9,8.0,30.25,NW,320,1.0,-999.0,28,-99.99,,,0.00,weatherlink.com 1.10,2013-04-06 17:30:00,
2013-04-06 13:45:00,39.5,7.0,30.26,NNW,342,2.0,-999.0,26,-99.99,,,0.00,weatherlink.com 1.10,2013-04-06 17:45:00,
2013-04-06 14:00:00,39.8,7.0,30.25,ENE,78,0.0,-999.0,25,-99.99,,,0.00,weatherlink.com 1.10,2013-04-06 18:00:00,
2013-04-06 14:15:00,40.7,8.0,30.25,NE,40,4.0,-999.0,26,-99.99,,,0.00,weatherlink.com 1.10,2013-04-06 18:15:00,
2013-04-06 14:30:00,41.1,8.0,30.25,WNW,282,4.0,-999.0,25,-99.99,,,0.00,weatherlink.com 1.10,2013-04-06 18:30:00,
2013-04-06 14:45:00,40.6,7.0,30.25,NW,306,5.0,-999.0,25,-99.99,,,0.00,weatherlink.com 1.10,2013-04-06 18:45:00,
2013-04-06 15:00:00,41.4,8.0,30.25,WSW,244,6.0,-999.0,25,-99.99,,,0.00,weatherlink.com 1.10,2013-04-06 19:00:00,
2013-04-06 15:15:00,40.8,7.0,30.25,NW,315,3.0,-999.0,25,-99.99,,,0.00,weatherlink.com 1.10,2013-04-06 19:15:00,
2013-04-06 15:30:00,41.9,8.0,30.25,WNW,302,1.0,-999.0,25,-99.99,,,0.00,weatherlink.com 1.10,2013-04-06 19:30:00,
2013-04-06 15:45:00,41.8,8.0,30.25,West,275,1.0,-999.0,25,-99.99,,,0.00,weatherlink.com 1.10,2013-04-06 19:45:00,
2013-04-06 16:00:00,42.2,9.0,30.25,WNW,296,4.0,-999.0,25,-99.99,,,0.00,weatherlink.com 1.10,2013-04-06 20:00:00,
2013-04-06 16:15:00,41.6,7.0,30.25,NE,39,2.0,-999.0,24,-99.99,,,0.00,weatherlink.com 1.10,2013-04-06 20:15:00,
2013-04-06 16:30:00,41.9,8.0,30.25,NW,308,0.0,-999.0,25,-99.99,,,0.00,weatherlink.com 1.10,2013-04-06 20:30:00,
2013-04-06 16:45:00,41.5,9.0,30.25,ENE,57,0.0,-999.0,26,-99.99,,,0.00,weatherlink.com 1.10,2013-04-06 20:45:00,
2013-04-06 17:00:00,41.6,8.0,30.26,WNW,298,5.0,-999.0,25,-99.99,,,0.00,weatherlink.com 1.10,2013-04-06 21:00:00,
2013-04-06 17:15:00,41.6,9.0,30.27,North,9,3.0,-999.0,26,-99.99,,,0.00,weatherlink.com 1.10,2013-04-06 21:15:00,
2013-04-06 17:30:00,41.7,9.0,30.27,WNW,292,2.0,-999.0,26,-99.99,,,0.00,weatherlink.com 1.10,2013-04-06 21:30:00,
2013-04-06 17:45:00,41.4,9.0,30.27,WNW,300,1.0,-999.0,26,-99.99,,,0.00,weatherlink.com 1.10,2013-04-06 21:45:00,
2013-04-06 18:00:00,41.1,8.0,30.28,West,277,0.0,-999.0,26,-99.99,,,0.00,weatherlink.com 1.10,2013-04-06 22:00:00,
2013-04-06 18:15:00,41.1,8.0,30.28,NNW,333,1.0,-999.0,25,-99.99,,,0.00,weatherlink.com 1.10,2013-04-06 22:15:00,
2013-04-06 18:30:00,40.6,8.0,30.29,NNW,329,0.0,-999.0,26,-99.99,,,0.00,weatherlink.com 1.10,2013-04-06 22:30:00,
2013-04-06 18:45:00,39.9,8.0,30.30,NNW,340,2.0,-999.0,27,-99.99,,,0.00,weatherlink.com 1.10,2013-04-06 22:45:00,
2013-04-06 19:00:00,39.0,8.0,30.30,NNW,340,0.0,-999.0,28,-99.99,,,0.00,weatherlink.com 1.10,2013-04-06 23:00:00,
2013-04-06 19:15:00,37.7,8.0,30.31,NNW,340,0.0,-999.0,29,-99.99,,,0.00,weatherlink.com 1.10,2013-04-06 23:15:00,
2013-04-06 19:30:00,36.3,8.0,30.32,NNW,340,0.0,-999.0,31,-99.99,,,0.00,weatherlink.com 1.10,2013-04-06 23:30:00,
2013-04-06 19:45:00,34.4,11.0,30.32,NNW,340,0.0,-999.0,38,-99.99,,,0.00,weatherlink.com 1.10,2013-04-06 23:45:00,
2013-04-06 20:00:00,33.2,13.0,30.33,NNW,340,0.0,-999.0,43,-99.99,,,0.00,weatherlink.com 1.10,2013-04-07 00:00:00,
2013-04-06 20:16:00,31.9,13.0,30.34,NNW,340,0.0,-999.0,45,-99.99,,,0.00,weatherlink.com 1.10,2013-04-07 00:16:00,
2013-04-06 20:30:00,30.6,13.0,30.34,NNW,340,0.0,-999.0,48,-99.99,,,0.00,weatherlink.com 1.10,2013-04-07 00:30:00,
2013-04-06 20:45:00,29.7,14.0,30.34,NNW,340,0.0,-999.0,52,-99.99,,,0.00,weatherlink.com 1.10,2013-04-07 00:45:00,
2013-04-06 21:01:00,29.0,15.0,30.34,NNW,340,0.0,-999.0,55,-99.99,,,0.00,weatherlink.com 1.10,2013-04-07 01:01:00,
2013-04-06 21:16:00,28.6,15.0,30.35,NNW,340,0.0,-999.0,58,-99.99,,,0.00,weatherlink.com 1.10,2013-04-07 01:16:00,
2013-04-06 21:31:00,28.2,15.0,30.35,NNW,340,0.0,-999.0,58,-99.99,,,0.00,weatherlink.com 1.10,2013-04-07 01:31:00,
2013-04-06 21:46:00,27.8,15.0,30.35,NNW,340,0.0,-999.0,60,-99.99,,,0.00,weatherlink.com 1.10,2013-04-07 01:46:00,
2013-04-06 22:01:00,27.4,15.0,30.35,NNW,340,0.0,-999.0,61,-99.99,,,0.00,weatherlink.com 1.10,2013-04-07 02:01:00,
2013-04-06 22:16:00,26.9,17.0,30.35,NNW,340,0.0,-999.0,66,-99.99,,,0.00,weatherlink.com 1.10,2013-04-07 02:16:00,
2013-04-06 22:31:00,26.8,17.0,30.35,ESE,121,0.0,-999.0,66,-99.99,,,0.00,weatherlink.com 1.10,2013-04-07 02:31:00,
2013-04-06 22:46:00,26.5,16.0,30.36,ESE,121,0.0,-999.0,66,-99.99,,,0.00,weatherlink.com 1.10,2013-04-07 02:46:00,
2013-04-06 23:01:00,26.2,17.0,30.36,ESE,121,0.0,-999.0,68,-99.99,,,0.00,weatherlink.com 1.10,2013-04-07 03:01:00,
2013-04-06 23:16:00,26.0,17.0,30.36,ESE,121,0.0,-999.0,68,-99.99,,,0.00,weatherlink.com 1.10,2013-04-07 03:16:00,
2013-04-06 23:31:00,25.9,18.0,30.36,ESE,121,0.0,-999.0,71,-99.99,,,0.00,weatherlink.com 1.10,2013-04-07 03:31:00,
2013-04-06 23:46:00,25.9,18.0,30.36,ESE,121,0.0,-999.0,71,-99.99,,,0.00,weatherlink.com 1.10,2013-04-07 03:46:00,